createdAt,value
2023-01-29T00:02:09.705Z,99197.16
2023-01-29T00:04:36.484Z,99211.84
2023-01-29T00:07:03.209Z,99189.47
2023-01-29T00:09:31.413Z,99187.66
2023-01-29T00:11:58.306Z,99205.78
2023-01-29T00:14:26.418Z,99202.38
2023-01-29T00:16:53.994Z,99219.56
2023-01-29T00:19:20.843Z,99229.13
2023-01-29T00:21:47.561Z,99226.56
2023-01-29T00:24:14.359Z,99169.66
2023-01-29T00:26:42.484Z,99220.47
2023-01-29T00:29:09.388Z,99222.22
2023-01-29T00:31:36.216Z,99217.09
2023-01-29T00:34:03.613Z,99225.66
2023-01-29T00:36:30.336Z,99222.22
2023-01-29T00:38:59.144Z,99223.09
2023-01-29T00:41:49.404Z,99232.66
2023-01-29T00:44:35.803Z,99219.69
2023-01-29T00:47:02.990Z,99231.78
2023-01-29T00:49:30.521Z,99229.16
2023-01-29T00:52:16.888Z,99235.25
2023-01-29T00:54:43.651Z,99207.63
2023-01-29T00:57:10.354Z,99184.38
2023-01-29T00:59:37.505Z,99237.00
2023-01-29T01:02:30.496Z,99225.81
2023-01-29T01:04:57.373Z,99234.41
2023-01-29T01:07:24.102Z,99231.81
2023-01-29T01:10:09.626Z,99242.19
2023-01-29T01:12:36.430Z,99221.47
2023-01-29T01:15:03.264Z,99215.41
2023-01-29T01:17:30.173Z,99240.47
2023-01-29T01:19:56.939Z,99237.91
2023-01-29T01:22:23.707Z,99239.66
2023-01-29T01:24:50.457Z,99235.34
2023-01-29T01:27:19.524Z,99233.59
2023-01-29T01:29:47.163Z,99232.72
2023-01-29T01:32:13.885Z,99242.22
2023-01-29T01:34:40.581Z,99244.78
2023-01-29T01:37:07.410Z,99239.56
2023-01-29T01:39:34.123Z,99242.19
2023-01-29T01:42:00.907Z,99240.47
2023-01-29T01:45:08.042Z,99247.41
2023-01-29T01:47:46.399Z,99212.03
2023-01-29T01:50:19.019Z,99243.97
2023-01-29T01:52:52.093Z,99224.94
2023-01-29T01:55:23.165Z,99211.16
2023-01-29T01:57:55.056Z,99223.22
2023-01-29T02:00:23.274Z,99247.41
2023-01-29T02:03:08.452Z,99223.25
2023-01-29T02:05:54.777Z,99252.59
2023-01-29T02:08:54.585Z,99258.69
2023-01-29T02:11:21.438Z,99265.63
2023-01-29T02:13:53.517Z,99249.25
2023-01-29T02:16:26.043Z,99217.41
2023-01-29T02:18:53.352Z,99261.44
2023-01-29T02:21:38.317Z,99277.03
2023-01-29T02:24:23.093Z,99280.50
2023-01-29T02:26:55.891Z,99250.22
2023-01-29T02:29:30.602Z,99275.22
2023-01-29T02:32:15.202Z,99276.97
2023-01-29T02:35:22.148Z,99275.22
2023-01-29T02:38:22.598Z,99270.91
2023-01-29T02:41:26.681Z,99270.91
2023-01-29T02:44:06.041Z,99264.03
2023-01-29T02:46:40.079Z,99270.91
2023-01-29T02:49:24.945Z,99271.72
2023-01-29T02:52:07.992Z,99261.44
2023-01-29T02:55:04.988Z,99281.28
2023-01-29T02:57:37.939Z,99239.84
2023-01-29T03:00:15.139Z,99282.13
2023-01-29T03:02:47.729Z,99266.59
2023-01-29T03:05:25.515Z,99279.56
2023-01-29T03:07:56.499Z,99285.63
2023-01-29T03:10:35.954Z,99277.81
2023-01-29T03:13:27.613Z,99272.63
2023-01-29T03:16:03.938Z,99276.03
2023-01-29T03:18:50.844Z,99284.72
2023-01-29T03:21:41.676Z,99288.22
2023-01-29T03:24:32.509Z,99287.41
2023-01-29T03:27:23.744Z,99254.56
2023-01-29T03:30:12.689Z,99278.72
2023-01-29T03:33:00.988Z,99286.50
2023-01-29T03:35:37.474Z,99290.84
2023-01-29T03:38:10.179Z,99289.97
2023-01-29T03:41:03.894Z,99290.84
2023-01-29T03:43:45.804Z,99271.84
2023-01-29T03:46:29.796Z,99283.94
2023-01-29T03:49:03.041Z,99291.72
2023-01-29T03:51:41.929Z,99291.72
2023-01-29T03:54:28.391Z,99296.09
2023-01-29T03:57:11.557Z,99300.41
2023-01-29T03:59:59.323Z,99282.28
2023-01-29T04:03:19.394Z,99302.16
2023-01-29T04:05:58.652Z,99303.03
2023-01-29T04:08:34.777Z,99294.34
2023-01-29T04:11:09.924Z,99277.94
2023-01-29T04:13:38.162Z,99294.34
2023-01-29T04:16:08.403Z,99261.53
2023-01-29T04:19:06.013Z,99282.28
2023-01-29T04:21:37.866Z,99297.84
2023-01-29T04:24:06.552Z,99287.44
2023-01-29T04:26:48.645Z,99295.25
2023-01-29T04:29:49.673Z,99288.31
2023-01-29T04:32:32.073Z,99287.44
2023-01-29T04:34:59.005Z,99294.34
2023-01-29T04:37:43.360Z,99295.25
2023-01-29T04:40:16.350Z,99289.16
2023-01-29T04:43:03.184Z,99292.63
2023-01-29T04:45:42.083Z,99290.88
2023-01-29T04:48:22.665Z,99285.66
2023-01-29T04:51:05.040Z,99292.63
2023-01-29T04:53:50.000Z,99266.72
2023-01-29T04:56:30.632Z,99292.66
2023-01-29T04:59:15.392Z,99261.56
2023-01-29T05:01:43.724Z,99292.66
2023-01-29T05:04:14.579Z,99300.50
2023-01-29T05:06:42.450Z,99295.34
2023-01-29T05:09:09.872Z,99282.41
2023-01-29T05:11:37.388Z,99286.75
2023-01-29T05:14:09.005Z,99270.41
2023-01-29T05:16:44.002Z,99297.13
2023-01-29T05:19:13.843Z,99289.28
2023-01-29T05:21:43.848Z,99291.03
2023-01-29T05:24:22.707Z,99300.56
2023-01-29T05:27:10.843Z,99300.53
2023-01-29T05:29:38.939Z,99304.84
2023-01-29T05:32:05.772Z,99291.03
2023-01-29T05:34:32.509Z,99279.78
2023-01-29T05:36:59.210Z,99303.16
2023-01-29T05:39:25.979Z,99304.84
2023-01-29T05:41:52.856Z,99304.00
2023-01-29T05:44:20.497Z,99304.91
2023-01-29T05:46:47.244Z,99303.19
2023-01-29T05:49:14.045Z,99287.69
2023-01-29T05:51:40.792Z,99288.50
2023-01-29T05:54:07.571Z,99311.88
2023-01-29T05:56:34.281Z,99304.06
2023-01-29T05:59:01.244Z,99306.66
2023-01-29T06:01:27.969Z,99309.25
2023-01-29T06:03:54.720Z,99290.34
2023-01-29T06:06:21.482Z,99311.06
2023-01-29T06:08:48.945Z,99307.56
2023-01-29T06:11:18.238Z,99311.91
2023-01-29T06:13:45.932Z,99314.50
2023-01-29T06:16:13.805Z,99301.53
2023-01-29T06:18:41.464Z,99308.47
2023-01-29T06:21:11.659Z,99301.56
2023-01-29T06:23:38.997Z,99315.38
2023-01-29T06:26:16.236Z,99299.84
2023-01-29T06:28:43.814Z,99312.81
2023-01-29T06:31:31.448Z,99328.34
2023-01-29T06:33:58.061Z,99325.75
2023-01-29T06:36:24.926Z,99311.13
2023-01-29T06:38:51.675Z,99324.06
2023-01-29T06:41:19.574Z,99331.81
2023-01-29T06:43:47.913Z,99335.28
2023-01-29T06:46:14.682Z,99324.91
2023-01-29T06:48:41.475Z,99282.63
2023-01-29T06:51:10.416Z,99337.81
2023-01-29T06:53:38.716Z,99336.97
2023-01-29T06:56:05.985Z,99343.88
2023-01-29T06:58:33.082Z,99346.44
2023-01-29T07:01:07.350Z,99352.47
2023-01-29T07:03:34.383Z,99349.00
2023-01-29T07:06:01.208Z,99351.56
2023-01-29T07:08:28.529Z,99357.59
2023-01-29T07:11:01.944Z,99331.69
2023-01-29T07:13:29.091Z,99350.63
2023-01-29T07:16:00.592Z,99344.59
2023-01-29T07:18:28.680Z,99347.13
2023-01-29T07:20:55.837Z,99336.72
2023-01-29T07:23:22.507Z,99357.38
2023-01-29T07:25:49.967Z,99338.28
2023-01-29T07:28:18.846Z,99341.66
2023-01-29T07:30:45.555Z,99330.44
2023-01-29T07:33:12.350Z,99352.84
2023-01-29T07:35:41.366Z,99332.00
2023-01-29T07:38:09.952Z,99340.63
2023-01-29T07:40:36.949Z,99342.34
2023-01-29T07:43:08.206Z,99319.91
2023-01-29T07:45:37.191Z,99319.00
2023-01-29T07:48:05.651Z,99327.53
2023-01-29T07:50:34.192Z,99330.09
2023-01-29T07:53:01.481Z,99317.06
2023-01-29T07:55:28.247Z,99292.94
2023-01-29T07:57:56.364Z,99317.78
2023-01-29T08:00:23.409Z,99296.09
2023-01-29T08:02:50.583Z,99320.19
2023-01-29T08:05:17.316Z,99332.28
2023-01-29T08:07:49.237Z,99335.75
2023-01-29T08:10:21.094Z,99319.19
2023-01-29T08:12:47.887Z,99326.00
2023-01-29T08:15:14.697Z,99372.16
2023-01-29T08:20:30.220Z,99353.75
2023-01-29T08:23:05.097Z,99379.66
2023-01-29T08:25:32.842Z,99392.38
2023-01-29T08:28:00.675Z,99370.59
2023-01-29T08:30:33.562Z,99394.41
2023-01-29T08:33:00.884Z,99380.41
2023-01-29T08:35:27.466Z,99386.44
2023-01-29T08:38:02.165Z,99400.16
2023-01-29T08:40:32.221Z,99399.00
2023-01-29T08:43:04.027Z,99410.00
2023-01-29T08:45:38.029Z,99409.91
2023-01-29T08:48:05.860Z,99401.66
2023-01-29T08:50:35.182Z,99423.53
2023-01-29T08:53:05.638Z,99417.50
2023-01-29T08:55:32.629Z,99396.28
2023-01-29T08:57:59.789Z,99385.47
2023-01-29T09:00:27.220Z,99415.34
2023-01-29T09:02:53.954Z,99435.56
2023-01-29T09:05:21.061Z,99429.09
2023-01-29T09:07:47.789Z,99429.13
2023-01-29T09:10:15.710Z,99423.84
2023-01-29T09:12:42.867Z,99430.00
2023-01-29T09:15:10.100Z,99432.22
2023-01-29T09:17:36.667Z,99434.88
2023-01-29T09:20:06.180Z,99438.41
2023-01-29T09:22:32.894Z,99423.19
2023-01-29T09:24:59.675Z,99442.94
2023-01-29T09:27:26.470Z,99445.78
2023-01-29T09:29:53.203Z,99435.69
2023-01-29T09:32:49.706Z,99453.97
2023-01-29T09:35:13.046Z,99450.22
2023-01-29T09:37:40.876Z,99450.78
2023-01-29T09:40:18.524Z,99452.75
2023-01-29T09:42:54.390Z,99443.22
2023-01-29T09:45:25.451Z,99432.66
2023-01-29T09:47:53.367Z,99453.44
2023-01-29T09:50:28.194Z,99430.97
2023-01-29T09:53:05.115Z,99462.25
2023-01-29T09:55:38.232Z,99459.94
2023-01-29T09:58:34.316Z,99452.03
2023-01-29T10:01:18.950Z,99466.91
2023-01-29T10:03:51.454Z,99465.09
2023-01-29T10:06:48.957Z,99460.31
2023-01-29T10:09:46.493Z,99461.22
2023-01-29T10:12:31.330Z,99456.69
2023-01-29T10:15:22.397Z,99428.13
2023-01-29T10:17:50.445Z,99457.44
2023-01-29T10:20:35.812Z,99450.44
2023-01-29T10:23:30.632Z,99445.16
2023-01-29T10:25:58.176Z,99440.16
2023-01-29T10:28:45.982Z,99439.41
2023-01-29T10:31:19.120Z,99443.63
2023-01-29T10:34:02.035Z,99442.03
2023-01-29T10:36:47.951Z,99442.34
2023-01-29T10:39:23.129Z,99447.19
2023-01-29T10:42:13.343Z,99423.59
2023-01-29T10:45:01.085Z,99425.41
2023-01-29T10:47:56.226Z,99426.19
2023-01-29T10:50:44.373Z,99421.66
2023-01-29T10:53:20.116Z,99420.00
2023-01-29T10:55:53.889Z,99418.94
2023-01-29T10:58:34.145Z,99426.00
2023-01-29T11:01:01.427Z,99407.06
2023-01-29T11:03:29.951Z,99405.97
2023-01-29T11:06:12.033Z,99414.38
2023-01-29T11:08:54.372Z,99401.94
2023-01-29T11:11:27.217Z,99407.22
2023-01-29T11:14:05.353Z,99416.44
2023-01-29T11:16:39.757Z,99408.25
2023-01-29T11:19:06.599Z,99361.94
2023-01-29T11:21:56.724Z,99404.97
2023-01-29T11:24:23.990Z,99408.19
2023-01-29T11:26:52.407Z,99415.81
2023-01-29T11:29:38.238Z,99424.28
2023-01-29T11:32:14.168Z,99411.53
2023-01-29T11:35:00.856Z,99368.41
2023-01-29T11:37:42.090Z,99384.75
2023-01-29T11:40:34.151Z,99397.28
2023-01-29T11:43:22.414Z,99395.53
2023-01-29T11:45:52.075Z,99361.03
2023-01-29T11:48:21.766Z,99385.75
2023-01-29T11:51:00.967Z,99367.16
2023-01-29T11:53:45.205Z,99356.84
2023-01-29T11:56:45.517Z,99356.75
2023-01-29T11:59:44.102Z,99332.66
2023-01-29T12:02:19.287Z,99352.41
2023-01-29T12:04:46.977Z,99353.84
2023-01-29T12:07:16.978Z,99329.78
2023-01-29T12:09:56.265Z,99342.44
2023-01-29T12:12:32.041Z,99342.97
2023-01-29T12:15:17.202Z,99336.72
2023-01-29T12:18:18.323Z,99313.59
2023-01-29T12:20:50.821Z,99331.03
2023-01-29T12:23:48.190Z,99319.72
2023-01-29T12:26:22.110Z,99324.91
2023-01-29T12:29:32.570Z,99325.78
2023-01-29T12:32:08.234Z,99333.88
2023-01-29T12:34:47.097Z,99332.13
2023-01-29T12:37:34.090Z,99331.91
2023-01-29T12:40:01.850Z,99338.00
2023-01-29T12:42:28.851Z,99327.50
2023-01-29T12:45:01.182Z,99326.53
2023-01-29T12:47:36.701Z,99324.03
2023-01-29T12:50:15.082Z,99334.66
2023-01-29T12:52:48.228Z,99318.13
2023-01-29T12:55:26.815Z,99326.63
2023-01-29T12:58:05.274Z,99301.75
2023-01-29T13:00:35.698Z,99303.31
2023-01-29T13:03:28.857Z,99311.94
2023-01-29T13:06:01.073Z,99321.69
2023-01-29T13:08:32.449Z,99311.09
2023-01-29T13:11:04.079Z,99309.38
2023-01-29T13:13:45.043Z,99310.56
2023-01-29T13:16:15.853Z,99288.84
2023-01-29T13:19:02.737Z,99301.81
2023-01-29T13:21:35.286Z,99298.16
2023-01-29T13:24:13.092Z,99285.88
2023-01-29T13:26:40.971Z,99284.91
2023-01-29T13:29:21.362Z,99283.22
2023-01-29T13:31:50.025Z,99272.84
2023-01-29T13:34:31.621Z,99256.94
2023-01-29T13:37:02.951Z,99269.16
2023-01-29T13:39:37.493Z,99274.25
2023-01-29T13:42:17.813Z,99259.38
2023-01-29T13:44:50.455Z,99268.84
2023-01-29T13:47:30.495Z,99272.31
2023-01-29T13:50:03.838Z,99271.34
2023-01-29T13:52:37.032Z,99271.22
2023-01-29T13:55:26.265Z,99240.06
2023-01-29T13:57:56.375Z,99272.75
2023-01-29T14:00:25.063Z,99265.06
2023-01-29T14:02:54.690Z,99266.84
2023-01-29T14:05:30.670Z,99275.53
2023-01-29T14:08:07.170Z,99259.91
2023-01-29T14:10:36.153Z,99264.94
2023-01-29T14:13:27.549Z,99244.28
2023-01-29T14:15:57.804Z,99264.03
2023-01-29T14:18:29.675Z,99246.84
2023-01-29T14:21:21.743Z,99258.16
2023-01-29T14:23:53.863Z,99256.50
2023-01-29T14:26:23.624Z,99262.81
2023-01-29T14:29:12.958Z,99260.34
2023-01-29T14:31:52.189Z,99246.63
2023-01-29T14:34:32.890Z,99260.44
2023-01-29T14:37:04.093Z,99257.13
2023-01-29T14:39:43.039Z,99195.97
2023-01-29T14:42:34.977Z,99239.84
2023-01-29T14:45:21.522Z,99236.28
2023-01-29T14:47:48.222Z,99254.53
2023-01-29T14:50:31.821Z,99253.63
2023-01-29T14:53:11.366Z,99236.31
2023-01-29T14:55:40.742Z,99254.53
2023-01-29T14:58:15.055Z,99256.19
2023-01-29T15:00:46.065Z,99249.41
2023-01-29T15:03:39.779Z,99247.63
2023-01-29T15:06:10.449Z,99234.75
2023-01-29T15:09:02.568Z,99238.25
2023-01-29T15:11:56.017Z,99231.41
2023-01-29T15:14:32.873Z,99260.63
2023-01-29T15:17:07.842Z,99249.44
2023-01-29T15:19:44.667Z,99253.75
2023-01-29T15:22:33.013Z,99248.47
2023-01-29T15:25:14.486Z,99192.44
2023-01-29T15:27:43.428Z,99251.88
2023-01-29T15:30:29.389Z,99241.59
2023-01-29T15:32:56.822Z,99223.59
2023-01-29T15:35:33.940Z,99223.69
2023-01-29T15:38:00.660Z,99221.94
2023-01-29T15:40:27.780Z,99232.31
2023-01-29T15:42:54.526Z,99172.09
2023-01-29T15:45:32.607Z,99209.88
2023-01-29T15:48:05.723Z,99235.66
2023-01-29T15:50:36.965Z,99215.88
2023-01-29T15:53:08.242Z,99227.94
2023-01-29T15:55:35.833Z,99217.69
2023-01-29T15:58:02.629Z,99185.03
2023-01-29T16:00:30.522Z,99197.06
2023-01-29T16:02:58.349Z,99187.59
2023-01-29T16:05:30.725Z,99206.53
2023-01-29T16:07:58.014Z,99207.38
2023-01-29T16:10:26.773Z,99204.81
2023-01-29T16:12:53.813Z,99203.97
2023-01-29T16:15:28.140Z,99208.28
2023-01-29T16:17:54.930Z,99211.69
2023-01-29T16:20:30.887Z,99219.56
2023-01-29T16:22:58.262Z,99208.22
2023-01-29T16:25:25.100Z,99216.06
2023-01-29T16:27:52.173Z,99184.25
2023-01-29T16:30:19.146Z,99214.44
2023-01-29T16:32:46.132Z,99204.13
2023-01-29T16:35:16.845Z,99217.06
2023-01-29T16:37:48.864Z,99223.19
2023-01-29T16:40:37.988Z,99239.69
2023-01-29T16:43:17.324Z,99238.81
2023-01-29T16:46:05.621Z,99242.34
2023-01-29T16:48:34.591Z,99240.53
2023-01-29T16:51:13.748Z,99249.25
2023-01-29T16:53:52.516Z,99237.22
2023-01-29T16:56:22.550Z,99246.66
2023-01-29T16:58:54.489Z,99232.03
2023-01-29T17:01:24.741Z,99233.72
2023-01-29T17:04:00.296Z,99245.91
2023-01-29T17:06:27.816Z,99256.22
2023-01-29T17:08:54.857Z,99245.97
2023-01-29T17:11:30.286Z,99252.81
2023-01-29T17:13:57.802Z,99253.72
2023-01-29T17:16:37.601Z,99255.50
2023-01-29T17:19:18.041Z,99242.50
2023-01-29T17:21:44.944Z,99197.72
2023-01-29T17:24:12.043Z,99247.72
2023-01-29T17:26:39.602Z,99253.00
2023-01-29T17:29:10.258Z,99193.63
2023-01-29T17:31:37.771Z,99247.97
2023-01-29T17:34:13.182Z,99250.53
2023-01-29T17:36:44.792Z,99263.56
2023-01-29T17:39:24.031Z,99260.16
2023-01-29T17:41:53.933Z,99258.50
2023-01-29T17:44:21.881Z,99250.72
2023-01-29T17:46:49.659Z,99278.34
2023-01-29T17:49:24.094Z,99267.13
2023-01-29T17:51:56.327Z,99260.34
2023-01-29T17:54:24.319Z,99277.53
2023-01-29T17:56:52.192Z,99275.84
2023-01-29T17:59:22.290Z,99274.94
2023-01-29T18:01:50.243Z,99270.63
2023-01-29T18:04:21.371Z,99273.22
2023-01-29T18:06:50.570Z,99269.81
2023-01-29T18:09:20.647Z,99273.28
2023-01-29T18:11:49.472Z,99271.56
2023-01-29T18:14:17.480Z,99261.16
2023-01-29T18:16:45.216Z,99261.19
2023-01-29T18:19:24.267Z,99257.69
2023-01-29T18:21:51.489Z,99256.84
2023-01-29T18:24:20.579Z,99255.13
2023-01-29T18:26:49.013Z,99193.88
2023-01-29T18:29:15.923Z,99212.81
2023-01-29T18:31:42.652Z,99248.16
2023-01-29T18:34:09.604Z,99245.56
2023-01-29T18:36:36.384Z,99246.41
2023-01-29T18:39:03.291Z,99249.03
2023-01-29T18:41:30.017Z,99253.41
2023-01-29T18:43:57.122Z,99243.84
2023-01-29T18:46:24.421Z,99243.94
2023-01-29T18:48:51.288Z,99247.41
2023-01-29T18:51:18.077Z,99245.75
2023-01-29T18:53:49.416Z,99254.41
2023-01-29T18:56:16.178Z,99234.63
2023-01-29T18:58:42.992Z,99256.22
2023-01-29T19:01:18.941Z,99252.75
2023-01-29T19:03:45.703Z,99258.78
2023-01-29T19:06:13.361Z,99262.22
2023-01-29T19:08:41.056Z,99261.38
2023-01-29T19:11:09.051Z,99257.91
2023-01-29T19:13:36.827Z,99266.63
2023-01-29T19:16:07.638Z,99251.09
2023-01-29T19:18:34.492Z,99249.34
2023-01-29T19:21:10.546Z,99234.66
2023-01-29T19:23:37.476Z,99244.94
2023-01-29T19:26:07.355Z,99233.75
2023-01-29T19:28:34.932Z,99213.00
2023-01-29T19:31:02.079Z,99234.56
2023-01-29T19:33:30.082Z,99169.13
2023-01-29T19:35:58.186Z,99244.94
2023-01-29T19:38:27.370Z,99244.94
2023-01-29T19:40:57.793Z,99242.38
2023-01-29T19:43:24.669Z,99248.44
2023-01-29T19:46:01.326Z,99248.50
2023-01-29T19:48:29.410Z,99220.06
2023-01-29T19:50:59.533Z,99240.72
2023-01-29T19:53:29.331Z,99218.25
2023-01-29T19:56:05.051Z,99231.19
2023-01-29T19:58:33.752Z,99215.66
2023-01-29T20:01:07.621Z,99221.66
2023-01-29T20:03:38.083Z,99223.44
2023-01-29T20:06:07.215Z,99212.19
2023-01-29T20:08:37.160Z,99217.31
2023-01-29T20:11:06.219Z,99212.19
2023-01-29T20:13:34.364Z,99219.97
2023-01-29T20:16:05.757Z,99197.56
2023-01-29T20:18:33.505Z,99206.09
2023-01-29T20:21:08.007Z,99198.41
2023-01-29T20:23:45.049Z,99207.03
2023-01-29T20:26:17.192Z,99206.09
2023-01-29T20:28:48.201Z,99205.38
2023-01-29T20:31:16.893Z,99202.03
2023-01-29T20:33:45.291Z,99189.84
2023-01-29T20:36:16.321Z,99173.41
2023-01-29T20:38:48.033Z,99199.28
2023-01-29T20:41:18.490Z,99182.06
2023-01-29T20:43:46.967Z,99192.47
2023-01-29T20:46:14.746Z,99178.63
2023-01-29T20:48:42.337Z,99168.19
2023-01-29T20:51:17.399Z,99171.63
2023-01-29T20:53:51.267Z,99175.94
2023-01-29T20:56:32.015Z,99176.72
2023-01-29T20:59:09.185Z,99162.13
2023-01-29T21:01:35.897Z,99165.56
2023-01-29T21:04:02.898Z,99165.50
2023-01-29T21:06:30.123Z,99146.53
2023-01-29T21:08:56.771Z,99164.63
2023-01-29T21:11:23.738Z,99165.50
2023-01-29T21:13:53.258Z,99152.53
2023-01-29T21:16:19.985Z,99161.16
2023-01-29T21:18:46.771Z,99158.56
2023-01-29T21:21:13.478Z,99157.69
2023-01-29T21:23:40.235Z,99138.72
2023-01-29T21:26:07.025Z,99129.25
2023-01-29T21:28:34.510Z,99146.47
2023-01-29T21:31:10.126Z,99132.66
2023-01-29T21:33:38.188Z,99142.16
2023-01-29T21:36:05.309Z,99127.53
2023-01-29T21:38:32.281Z,99138.72
2023-01-29T21:41:00.714Z,99121.41
2023-01-29T21:43:27.498Z,99099.81
2023-01-29T21:45:59.952Z,99114.47
2023-01-29T21:48:27.186Z,99122.28
2023-01-29T21:50:53.840Z,99117.09
2023-01-29T21:53:20.800Z,99105.06
2023-01-29T21:55:48.021Z,99099.84
2023-01-29T21:58:14.890Z,99111.16
2023-01-29T22:00:41.684Z,99105.94
2023-01-29T22:03:08.550Z,99105.91
2023-01-29T22:05:35.472Z,99100.66
2023-01-29T22:08:04.751Z,99104.97
2023-01-29T22:10:34.006Z,99099.00
2023-01-29T22:13:02.030Z,99049.97
2023-01-29T22:15:28.985Z,99099.09
2023-01-29T22:17:55.745Z,99083.59
2023-01-29T22:20:29.779Z,99084.41
2023-01-29T22:22:59.030Z,99082.56
2023-01-29T22:25:26.139Z,99080.03
2023-01-29T22:27:52.840Z,99073.09
2023-01-29T22:30:19.931Z,99065.34
2023-01-29T22:32:47.329Z,99032.66
2023-01-29T22:35:14.030Z,99051.56
2023-01-29T22:37:40.849Z,99036.88
2023-01-29T22:40:08.313Z,99007.50
2023-01-29T22:42:35.219Z,99017.84
2023-01-29T22:45:01.944Z,99024.78
2023-01-29T22:47:28.729Z,99022.97
2023-01-29T22:49:55.428Z,98975.63
2023-01-29T22:52:22.453Z,99021.28
2023-01-29T22:54:49.330Z,99027.41
2023-01-29T22:57:16.242Z,98984.34
2023-01-29T22:59:42.954Z,98961.13
2023-01-29T23:02:09.755Z,99001.69
2023-01-29T23:04:36.868Z,99004.25
2023-01-29T23:07:03.945Z,99005.19
2023-01-29T23:09:30.791Z,98982.81
2023-01-29T23:11:57.559Z,99000.13
2023-01-29T23:14:24.293Z,98999.31
2023-01-29T23:16:51.071Z,99000.28
2023-01-29T23:19:17.775Z,98987.38
2023-01-29T23:21:44.591Z,98990.88
2023-01-29T23:24:11.515Z,98982.28
2023-01-29T23:26:57.152Z,98947.00
2023-01-29T23:29:23.912Z,98984.06
2023-01-29T23:31:50.706Z,98969.38
2023-01-29T23:34:17.596Z,98894.56
2023-01-29T23:36:44.551Z,98955.72
2023-01-29T23:39:11.299Z,98956.63
2023-01-29T23:41:38.126Z,98967.00
2023-01-29T23:44:05.267Z,98959.19
2023-01-29T23:46:32.491Z,98956.63
2023-01-29T23:48:59.428Z,98934.25
2023-01-29T23:51:26.275Z,98949.75
2023-01-29T23:53:53.151Z,98957.63
2023-01-29T23:56:20.707Z,98943.75
2023-01-29T23:58:47.541Z,98938.56
